sensor_id;sensor_type;location;lat;lon;timestamp;temperature;humidity
53599;DHT22;39485;45.702;11.364;2022-08-05T00:00:47;25.10;79.70
53599;DHT22;39485;45.702;11.364;2022-08-05T00:03:12;25.10;80.00
53599;DHT22;39485;45.702;11.364;2022-08-05T00:05:38;25.10;80.00
53599;DHT22;39485;45.702;11.364;2022-08-05T00:08:04;25.00;80.10
53599;DHT22;39485;45.702;11.364;2022-08-05T00:10:29;25.00;80.20
53599;DHT22;39485;45.702;11.364;2022-08-05T00:12:55;25.00;80.30
53599;DHT22;39485;45.702;11.364;2022-08-05T00:15:21;25.00;80.40
53599;DHT22;39485;45.702;11.364;2022-08-05T00:17:46;24.90;80.40
53599;DHT22;39485;45.702;11.364;2022-08-05T00:20:12;24.90;80.30
53599;DHT22;39485;45.702;11.364;2022-08-05T00:22:38;24.90;80.30
53599;DHT22;39485;45.702;11.364;2022-08-05T00:25:04;24.90;80.20
53599;DHT22;39485;45.702;11.364;2022-08-05T00:27:29;25.00;80.20
53599;DHT22;39485;45.702;11.364;2022-08-05T00:29:55;24.90;80.10
53599;DHT22;39485;45.702;11.364;2022-08-05T00:32:21;24.90;80.10
53599;DHT22;39485;45.702;11.364;2022-08-05T00:34:46;25.00;80.00
53599;DHT22;39485;45.702;11.364;2022-08-05T00:37:12;25.00;80.00
53599;DHT22;39485;45.702;11.364;2022-08-05T00:39:38;25.00;80.10
53599;DHT22;39485;45.702;11.364;2022-08-05T00:42:04;25.00;80.10
53599;DHT22;39485;45.702;11.364;2022-08-05T00:44:30;25.00;80.20
53599;DHT22;39485;45.702;11.364;2022-08-05T00:46:56;25.00;80.20
53599;DHT22;39485;45.702;11.364;2022-08-05T00:49:21;25.00;80.40
53599;DHT22;39485;45.702;11.364;2022-08-05T00:51:47;25.00;80.30
53599;DHT22;39485;45.702;11.364;2022-08-05T00:54:12;25.00;80.30
53599;DHT22;39485;45.702;11.364;2022-08-05T00:56:39;24.90;80.30
53599;DHT22;39485;45.702;11.364;2022-08-05T00:59:05;24.90;80.40
53599;DHT22;39485;45.702;11.364;2022-08-05T01:01:31;24.90;80.50
53599;DHT22;39485;45.702;11.364;2022-08-05T01:03:57;24.90;80.50
53599;DHT22;39485;45.702;11.364;2022-08-05T01:06:23;24.90;80.60
53599;DHT22;39485;45.702;11.364;2022-08-05T01:08:48;24.90;80.80
53599;DHT22;39485;45.702;11.364;2022-08-05T01:11:21;24.90;80.90
53599;DHT22;39485;45.702;11.364;2022-08-05T01:14:11;24.80;81.10
53599;DHT22;39485;45.702;11.364;2022-08-05T01:17:01;24.80;81.40
53599;DHT22;39485;45.702;11.364;2022-08-05T01:19:50;24.80;81.40
53599;DHT22;39485;45.702;11.364;2022-08-05T01:30:39;24.60;81.40
53599;DHT22;39485;45.702;11.364;2022-08-05T01:33:08;24.60;81.40
53599;DHT22;39485;45.702;11.364;2022-08-05T01:35:38;24.60;81.40
53599;DHT22;39485;45.702;11.364;2022-08-05T01:38:05;24.60;81.60
53599;DHT22;39485;45.702;11.364;2022-08-05T01:40:32;24.60;81.60
53599;DHT22;39485;45.702;11.364;2022-08-05T01:42:59;24.60;81.80
53599;DHT22;39485;45.702;11.364;2022-08-05T01:45:28;24.60;81.80
53599;DHT22;39485;45.702;11.364;2022-08-05T01:47:56;24.60;81.90
53599;DHT22;39485;45.702;11.364;2022-08-05T01:50:31;24.50;81.80
53599;DHT22;39485;45.702;11.364;2022-08-05T01:53:02;24.50;81.90
53599;DHT22;39485;45.702;11.364;2022-08-05T01:55:32;24.50;81.90
53599;DHT22;39485;45.702;11.364;2022-08-05T01:57:59;24.50;81.90
53599;DHT22;39485;45.702;11.364;2022-08-05T02:00:26;24.50;82.00
53599;DHT22;39485;45.702;11.364;2022-08-05T02:02:55;24.50;81.90
53599;DHT22;39485;45.702;11.364;2022-08-05T02:05:26;24.40;81.90
53599;DHT22;39485;45.702;11.364;2022-08-05T02:07:52;24.40;82.00
53599;DHT22;39485;45.702;11.364;2022-08-05T02:10:18;24.40;82.20
53599;DHT22;39485;45.702;11.364;2022-08-05T02:13:02;24.40;82.20
53599;DHT22;39485;45.702;11.364;2022-08-05T02:15:33;24.40;83.00
53599;DHT22;39485;45.702;11.364;2022-08-05T02:18:06;24.40;82.60
53599;DHT22;39485;45.702;11.364;2022-08-05T02:20:51;24.30;82.90
53599;DHT22;39485;45.702;11.364;2022-08-05T02:23:25;24.30;83.30
53599;DHT22;39485;45.702;11.364;2022-08-05T02:25:54;24.30;83.60
53599;DHT22;39485;45.702;11.364;2022-08-05T02:28:23;24.20;83.80
53599;DHT22;39485;45.702;11.364;2022-08-05T02:31:01;24.20;83.90
53599;DHT22;39485;45.702;11.364;2022-08-05T02:33:34;24.10;83.90
53599;DHT22;39485;45.702;11.364;2022-08-05T02:36:02;24.10;84.00
53599;DHT22;39485;45.702;11.364;2022-08-05T02:38:30;24.10;84.00
53599;DHT22;39485;45.702;11.364;2022-08-05T02:40:57;24.00;84.10
53599;DHT22;39485;45.702;11.364;2022-08-05T02:43:24;24.10;84.20
53599;DHT22;39485;45.702;11.364;2022-08-05T02:45:50;24.00;84.30
53599;DHT22;39485;45.702;11.364;2022-08-05T02:48:17;24.00;84.40
53599;DHT22;39485;45.702;11.364;2022-08-05T02:50:45;24.00;84.50
53599;DHT22;39485;45.702;11.364;2022-08-05T02:53:13;24.00;84.60
53599;DHT22;39485;45.702;11.364;2022-08-05T02:55:40;24.00;84.90
53599;DHT22;39485;45.702;11.364;2022-08-05T02:58:06;24.00;84.90
53599;DHT22;39485;45.702;11.364;2022-08-05T03:00:34;24.00;85.00
53599;DHT22;39485;45.702;11.364;2022-08-05T03:03:00;23.90;85.00
53599;DHT22;39485;45.702;11.364;2022-08-05T03:05:26;23.90;84.90
53599;DHT22;39485;45.702;11.364;2022-08-05T03:07:52;23.90;85.00
53599;DHT22;39485;45.702;11.364;2022-08-05T03:10:19;23.90;85.10
53599;DHT22;39485;45.702;11.364;2022-08-05T03:12:45;23.90;85.20
53599;DHT22;39485;45.702;11.364;2022-08-05T03:15:11;23.90;85.30
53599;DHT22;39485;45.702;11.364;2022-08-05T03:17:37;23.90;85.30
53599;DHT22;39485;45.702;11.364;2022-08-05T03:20:04;23.90;85.30
53599;DHT22;39485;45.702;11.364;2022-08-05T03:22:30;23.90;85.30
53599;DHT22;39485;45.702;11.364;2022-08-05T03:24:57;23.90;85.20
53599;DHT22;39485;45.702;11.364;2022-08-05T03:27:23;23.90;85.10
53599;DHT22;39485;45.702;11.364;2022-08-05T03:29:49;23.80;85.10
53599;DHT22;39485;45.702;11.364;2022-08-05T03:32:15;23.90;85.30
53599;DHT22;39485;45.702;11.364;2022-08-05T03:34:42;23.90;85.30
53599;DHT22;39485;45.702;11.364;2022-08-05T03:37:09;23.90;85.30
53599;DHT22;39485;45.702;11.364;2022-08-05T03:39:34;23.80;85.20
53599;DHT22;39485;45.702;11.364;2022-08-05T03:42:00;23.80;85.50
53599;DHT22;39485;45.702;11.364;2022-08-05T03:44:26;23.80;85.50
53599;DHT22;39485;45.702;11.364;2022-08-05T03:46:51;23.80;85.30
53599;DHT22;39485;45.702;11.364;2022-08-05T03:49:17;23.80;85.10
53599;DHT22;39485;45.702;11.364;2022-08-05T03:51:57;23.80;85.10
53599;DHT22;39485;45.702;11.364;2022-08-05T03:56:56;23.80;85.20
53599;DHT22;39485;45.702;11.364;2022-08-05T03:59:27;23.80;85.40
53599;DHT22;39485;45.702;11.364;2022-08-05T04:01:55;23.90;85.60
53599;DHT22;39485;45.702;11.364;2022-08-05T04:04:23;23.80;85.60
53599;DHT22;39485;45.702;11.364;2022-08-05T04:06:50;23.90;86.10
53599;DHT22;39485;45.702;11.364;2022-08-05T04:09:16;23.90;86.10
53599;DHT22;39485;45.702;11.364;2022-08-05T04:11:42;23.90;86.40
53599;DHT22;39485;45.702;11.364;2022-08-05T04:14:09;23.80;86.40
53599;DHT22;39485;45.702;11.364;2022-08-05T04:16:36;23.90;86.70
53599;DHT22;39485;45.702;11.364;2022-08-05T04:19:03;23.80;87.10
53599;DHT22;39485;45.702;11.364;2022-08-05T04:21:29;23.80;87.60
53599;DHT22;39485;45.702;11.364;2022-08-05T04:23:55;23.80;87.90
53599;DHT22;39485;45.702;11.364;2022-08-05T04:26:23;23.80;88.20
53599;DHT22;39485;45.702;11.364;2022-08-05T04:28:49;23.80;88.40
53599;DHT22;39485;45.702;11.364;2022-08-05T04:31:14;23.80;88.40
53599;DHT22;39485;45.702;11.364;2022-08-05T04:33:40;23.80;88.10
53599;DHT22;39485;45.702;11.364;2022-08-05T04:36:06;23.70;87.80
53599;DHT22;39485;45.702;11.364;2022-08-05T04:38:35;23.70;87.80
53599;DHT22;39485;45.702;11.364;2022-08-05T04:41:01;23.70;87.50
53599;DHT22;39485;45.702;11.364;2022-08-05T04:43:27;23.70;87.40
53599;DHT22;39485;45.702;11.364;2022-08-05T04:45:52;23.70;87.30
53599;DHT22;39485;45.702;11.364;2022-08-05T04:48:18;23.70;87.40
53599;DHT22;39485;45.702;11.364;2022-08-05T04:50:46;23.70;87.50
53599;DHT22;39485;45.702;11.364;2022-08-05T04:53:14;23.80;87.60
53599;DHT22;39485;45.702;11.364;2022-08-05T04:55:40;23.80;87.70
53599;DHT22;39485;45.702;11.364;2022-08-05T04:58:07;23.80;87.70
53599;DHT22;39485;45.702;11.364;2022-08-05T05:00:35;23.90;87.80
53599;DHT22;39485;45.702;11.364;2022-08-05T05:03:02;23.90;87.70
53599;DHT22;39485;45.702;11.364;2022-08-05T05:05:28;24.00;87.60
53599;DHT22;39485;45.702;11.364;2022-08-05T05:07:56;24.00;87.60
53599;DHT22;39485;45.702;11.364;2022-08-05T05:10:23;24.10;87.50
53599;DHT22;39485;45.702;11.364;2022-08-05T05:12:49;24.20;87.30
53599;DHT22;39485;45.702;11.364;2022-08-05T05:15:15;24.20;87.10
53599;DHT22;39485;45.702;11.364;2022-08-05T05:17:42;24.30;86.80
53599;DHT22;39485;45.702;11.364;2022-08-05T05:20:10;24.40;86.60
53599;DHT22;39485;45.702;11.364;2022-08-05T05:22:36;24.40;86.40
53599;DHT22;39485;45.702;11.364;2022-08-05T05:25:02;24.40;86.40
53599;DHT22;39485;45.702;11.364;2022-08-05T05:27:30;24.50;86.30
53599;DHT22;39485;45.702;11.364;2022-08-05T05:29:56;24.50;86.30
53599;DHT22;39485;45.702;11.364;2022-08-05T05:32:22;24.60;86.20
53599;DHT22;39485;45.702;11.364;2022-08-05T05:34:47;24.60;86.10
53599;DHT22;39485;45.702;11.364;2022-08-05T05:37:13;24.70;86.20
53599;DHT22;39485;45.702;11.364;2022-08-05T05:39:42;24.70;85.70
53599;DHT22;39485;45.702;11.364;2022-08-05T05:42:08;24.80;85.50
53599;DHT22;39485;45.702;11.364;2022-08-05T05:44:34;24.90;85.30
53599;DHT22;39485;45.702;11.364;2022-08-05T05:47:00;24.90;85.10
53599;DHT22;39485;45.702;11.364;2022-08-05T05:49:26;25.00;84.70
53599;DHT22;39485;45.702;11.364;2022-08-05T05:51:52;25.10;84.40
53599;DHT22;39485;45.702;11.364;2022-08-05T05:54:18;25.20;84.40
53599;DHT22;39485;45.702;11.364;2022-08-05T05:56:44;25.20;83.80
53599;DHT22;39485;45.702;11.364;2022-08-05T05:59:09;25.40;83.60
53599;DHT22;39485;45.702;11.364;2022-08-05T06:01:40;25.40;83.10
53599;DHT22;39485;45.702;11.364;2022-08-05T06:04:11;25.50;82.90
53599;DHT22;39485;45.702;11.364;2022-08-05T06:06:36;25.60;82.80
53599;DHT22;39485;45.702;11.364;2022-08-05T06:09:04;25.70;82.50
53599;DHT22;39485;45.702;11.364;2022-08-05T06:11:31;25.80;82.40
53599;DHT22;39485;45.702;11.364;2022-08-05T06:13:57;25.90;82.20
53599;DHT22;39485;45.702;11.364;2022-08-05T06:16:23;26.00;82.40
53599;DHT22;39485;45.702;11.364;2022-08-05T06:18:48;26.00;82.50
53599;DHT22;39485;45.702;11.364;2022-08-05T06:21:14;26.10;82.60
53599;DHT22;39485;45.702;11.364;2022-08-05T06:23:40;26.20;82.50
53599;DHT22;39485;45.702;11.364;2022-08-05T06:26:05;26.30;82.40
53599;DHT22;39485;45.702;11.364;2022-08-05T06:28:31;26.40;81.90
53599;DHT22;39485;45.702;11.364;2022-08-05T06:30:57;26.50;81.10
53599;DHT22;39485;45.702;11.364;2022-08-05T06:33:22;26.70;80.10
53599;DHT22;39485;45.702;11.364;2022-08-05T06:35:48;26.70;79.50
53599;DHT22;39485;45.702;11.364;2022-08-05T06:38:14;26.80;79.60
53599;DHT22;39485;45.702;11.364;2022-08-05T06:40:41;27.00;78.20
53599;DHT22;39485;45.702;11.364;2022-08-05T06:43:07;27.20;76.90
53599;DHT22;39485;45.702;11.364;2022-08-05T06:45:33;27.40;76.30
53599;DHT22;39485;45.702;11.364;2022-08-05T06:47:58;27.70;76.50
53599;DHT22;39485;45.702;11.364;2022-08-05T06:50:24;27.90;74.70
53599;DHT22;39485;45.702;11.364;2022-08-05T06:52:51;28.00;73.70
53599;DHT22;39485;45.702;11.364;2022-08-05T06:55:17;28.20;73.40
53599;DHT22;39485;45.702;11.364;2022-08-05T06:57:43;28.40;73.10
53599;DHT22;39485;45.702;11.364;2022-08-05T07:00:09;28.50;72.40
53599;DHT22;39485;45.702;11.364;2022-08-05T07:02:45;28.70;71.60
53599;DHT22;39485;45.702;11.364;2022-08-05T07:05:11;28.80;70.80
53599;DHT22;39485;45.702;11.364;2022-08-05T07:07:40;29.00;69.90
53599;DHT22;39485;45.702;11.364;2022-08-05T07:10:07;29.10;69.00
53599;DHT22;39485;45.702;11.364;2022-08-05T07:12:33;29.20;68.40
53599;DHT22;39485;45.702;11.364;2022-08-05T07:15:18;29.30;68.10
53599;DHT22;39485;45.702;11.364;2022-08-05T07:18:02;29.30;67.50
53599;DHT22;39485;45.702;11.364;2022-08-05T07:20:28;29.40;66.90
53599;DHT22;39485;45.702;11.364;2022-08-05T07:22:53;29.40;66.30
53599;DHT22;39485;45.702;11.364;2022-08-05T07:25:19;29.50;65.70
53599;DHT22;39485;45.702;11.364;2022-08-05T07:27:44;29.50;65.50
53599;DHT22;39485;45.702;11.364;2022-08-05T07:30:10;29.60;65.70
53599;DHT22;39485;45.702;11.364;2022-08-05T07:32:37;29.60;65.60
53599;DHT22;39485;45.702;11.364;2022-08-05T07:35:12;29.70;65.60
53599;DHT22;39485;45.702;11.364;2022-08-05T07:37:38;29.80;65.80
53599;DHT22;39485;45.702;11.364;2022-08-05T07:40:05;29.80;65.90
53599;DHT22;39485;45.702;11.364;2022-08-05T07:42:31;29.90;65.60
53599;DHT22;39485;45.702;11.364;2022-08-05T07:44:57;29.90;65.40
53599;DHT22;39485;45.702;11.364;2022-08-05T07:47:23;30.00;64.60
53599;DHT22;39485;45.702;11.364;2022-08-05T07:49:48;30.10;63.70
53599;DHT22;39485;45.702;11.364;2022-08-05T07:52:17;30.10;63.50
53599;DHT22;39485;45.702;11.364;2022-08-05T07:54:43;30.10;62.60
53599;DHT22;39485;45.702;11.364;2022-08-05T07:57:09;30.20;62.00
53599;DHT22;39485;45.702;11.364;2022-08-05T07:59:35;30.20;62.10
53599;DHT22;39485;45.702;11.364;2022-08-05T08:02:01;30.30;61.70
53599;DHT22;39485;45.702;11.364;2022-08-05T08:04:27;30.40;60.60
53599;DHT22;39485;45.702;11.364;2022-08-05T08:06:52;30.40;59.70
53599;DHT22;39485;45.702;11.364;2022-08-05T08:09:18;30.50;59.50
53599;DHT22;39485;45.702;11.364;2022-08-05T08:11:44;30.60;59.20
53599;DHT22;39485;45.702;11.364;2022-08-05T08:14:10;30.70;58.80
53599;DHT22;39485;45.702;11.364;2022-08-05T08:16:36;30.80;58.80
53599;DHT22;39485;45.702;11.364;2022-08-05T08:19:02;30.90;58.80
53599;DHT22;39485;45.702;11.364;2022-08-05T08:21:28;31.00;58.70
53599;DHT22;39485;45.702;11.364;2022-08-05T08:23:53;31.10;58.40
53599;DHT22;39485;45.702;11.364;2022-08-05T08:26:19;31.20;58.30
53599;DHT22;39485;45.702;11.364;2022-08-05T08:28:45;31.30;58.00
53599;DHT22;39485;45.702;11.364;2022-08-05T08:31:11;31.30;57.70
53599;DHT22;39485;45.702;11.364;2022-08-05T08:33:37;31.40;57.20
53599;DHT22;39485;45.702;11.364;2022-08-05T08:36:02;31.50;56.80
53599;DHT22;39485;45.702;11.364;2022-08-05T08:38:28;31.60;56.70
53599;DHT22;39485;45.702;11.364;2022-08-05T08:40:54;31.60;56.70
53599;DHT22;39485;45.702;11.364;2022-08-05T08:43:20;31.70;56.50
53599;DHT22;39485;45.702;11.364;2022-08-05T08:45:48;31.80;56.00
53599;DHT22;39485;45.702;11.364;2022-08-05T08:48:14;31.80;55.60
53599;DHT22;39485;45.702;11.364;2022-08-05T08:50:42;31.90;55.50
53599;DHT22;39485;45.702;11.364;2022-08-05T08:53:11;32.00;55.60
53599;DHT22;39485;45.702;11.364;2022-08-05T08:55:39;32.10;55.50
53599;DHT22;39485;45.702;11.364;2022-08-05T08:58:06;32.20;55.50
53599;DHT22;39485;45.702;11.364;2022-08-05T09:00:33;32.20;55.20
53599;DHT22;39485;45.702;11.364;2022-08-05T09:02:59;32.20;55.20
53599;DHT22;39485;45.702;11.364;2022-08-05T09:05:25;32.30;55.20
53599;DHT22;39485;45.702;11.364;2022-08-05T09:07:51;32.30;54.90
53599;DHT22;39485;45.702;11.364;2022-08-05T09:10:18;32.40;55.10
53599;DHT22;39485;45.702;11.364;2022-08-05T09:12:44;32.40;55.10
53599;DHT22;39485;45.702;11.364;2022-08-05T09:15:10;32.50;54.90
53599;DHT22;39485;45.702;11.364;2022-08-05T09:17:35;32.60;54.90
53599;DHT22;39485;45.702;11.364;2022-08-05T09:20:02;32.60;54.80
53599;DHT22;39485;45.702;11.364;2022-08-05T09:22:28;32.70;54.70
53599;DHT22;39485;45.702;11.364;2022-08-05T09:25:18;32.70;54.50
53599;DHT22;39485;45.702;11.364;2022-08-05T09:27:44;32.70;54.40
53599;DHT22;39485;45.702;11.364;2022-08-05T09:30:10;32.80;54.10
53599;DHT22;39485;45.702;11.364;2022-08-05T09:32:37;32.80;54.20
53599;DHT22;39485;45.702;11.364;2022-08-05T09:35:14;32.90;54.10
53599;DHT22;39485;45.702;11.364;2022-08-05T09:37:52;32.90;53.90
53599;DHT22;39485;45.702;11.364;2022-08-05T09:40:36;33.00;54.00
53599;DHT22;39485;45.702;11.364;2022-08-05T09:43:04;33.00;54.00
53599;DHT22;39485;45.702;11.364;2022-08-05T09:45:41;33.10;54.00
53599;DHT22;39485;45.702;11.364;2022-08-05T09:48:28;33.20;53.60
53599;DHT22;39485;45.702;11.364;2022-08-05T09:51:03;33.20;53.20
53599;DHT22;39485;45.702;11.364;2022-08-05T09:53:46;33.30;53.10
53599;DHT22;39485;45.702;11.364;2022-08-05T09:56:12;33.40;53.00
53599;DHT22;39485;45.702;11.364;2022-08-05T09:58:37;33.40;52.70
53599;DHT22;39485;45.702;11.364;2022-08-05T10:01:05;33.40;52.80
53599;DHT22;39485;45.702;11.364;2022-08-05T10:03:32;33.40;52.30
53599;DHT22;39485;45.702;11.364;2022-08-05T10:06:09;33.40;51.40
53599;DHT22;39485;45.702;11.364;2022-08-05T10:08:36;33.40;50.90
53599;DHT22;39485;45.702;11.364;2022-08-05T10:11:04;33.50;50.60
53599;DHT22;39485;45.702;11.364;2022-08-05T10:13:37;33.50;50.50
53599;DHT22;39485;45.702;11.364;2022-08-05T10:16:04;33.60;50.70
53599;DHT22;39485;45.702;11.364;2022-08-05T10:18:31;33.60;50.60
53599;DHT22;39485;45.702;11.364;2022-08-05T10:21:05;33.60;50.50
53599;DHT22;39485;45.702;11.364;2022-08-05T10:23:32;33.70;50.50
53599;DHT22;39485;45.702;11.364;2022-08-05T10:26:03;33.70;50.30
53599;DHT22;39485;45.702;11.364;2022-08-05T10:28:29;33.70;50.00
53599;DHT22;39485;45.702;11.364;2022-08-05T10:30:54;33.70;49.80
53599;DHT22;39485;45.702;11.364;2022-08-05T10:33:22;33.70;49.50
53599;DHT22;39485;45.702;11.364;2022-08-05T10:35:51;33.80;49.50
53599;DHT22;39485;45.702;11.364;2022-08-05T10:38:22;33.80;49.20
53599;DHT22;39485;45.702;11.364;2022-08-05T10:43:38;33.80;48.20
53599;DHT22;39485;45.702;11.364;2022-08-05T10:46:10;33.90;48.20
53599;DHT22;39485;45.702;11.364;2022-08-05T10:48:44;34.00;47.70
53599;DHT22;39485;45.702;11.364;2022-08-05T10:51:18;34.00;47.50
53599;DHT22;39485;45.702;11.364;2022-08-05T10:53:51;34.10;47.20
53599;DHT22;39485;45.702;11.364;2022-08-05T10:56:27;34.10;47.00
53599;DHT22;39485;45.702;11.364;2022-08-05T11:01:34;34.20;46.70
53599;DHT22;39485;45.702;11.364;2022-08-05T11:04:11;34.30;46.70
53599;DHT22;39485;45.702;11.364;2022-08-05T11:09:45;34.40;46.50
53599;DHT22;39485;45.702;11.364;2022-08-05T11:15:14;34.50;46.20
53599;DHT22;39485;45.702;11.364;2022-08-05T11:17:41;34.60;46.10
53599;DHT22;39485;45.702;11.364;2022-08-05T11:22:56;34.70;45.90
53599;DHT22;39485;45.702;11.364;2022-08-05T11:25:39;34.80;45.90
53599;DHT22;39485;45.702;11.364;2022-08-05T11:33:33;35.00;45.70
53599;DHT22;39485;45.702;11.364;2022-08-05T11:36:08;34.90;45.40
53599;DHT22;39485;45.702;11.364;2022-08-05T11:41:17;35.00;45.40
53599;DHT22;39485;45.702;11.364;2022-08-05T11:43:59;35.00;45.30
53599;DHT22;39485;45.702;11.364;2022-08-05T11:48:56;35.00;45.10
53599;DHT22;39485;45.702;11.364;2022-08-05T11:51:23;35.10;45.10
53599;DHT22;39485;45.702;11.364;2022-08-05T11:53:49;35.10;45.00
53599;DHT22;39485;45.702;11.364;2022-08-05T11:56:15;35.10;45.10
53599;DHT22;39485;45.702;11.364;2022-08-05T11:58:45;35.10;44.90
53599;DHT22;39485;45.702;11.364;2022-08-05T12:06:10;35.20;44.80
53599;DHT22;39485;45.702;11.364;2022-08-05T12:09:03;35.20;44.60
53599;DHT22;39485;45.702;11.364;2022-08-05T12:11:30;35.20;44.50
53599;DHT22;39485;45.702;11.364;2022-08-05T12:14:04;35.20;44.60
53599;DHT22;39485;45.702;11.364;2022-08-05T12:16:37;35.20;44.50
53599;DHT22;39485;45.702;11.364;2022-08-05T12:19:04;35.30;44.70
53599;DHT22;39485;45.702;11.364;2022-08-05T12:21:33;35.30;44.80
53599;DHT22;39485;45.702;11.364;2022-08-05T12:24:03;35.30;44.60
53599;DHT22;39485;45.702;11.364;2022-08-05T12:26:33;35.40;44.60
53599;DHT22;39485;45.702;11.364;2022-08-05T12:28:59;35.40;44.70
53599;DHT22;39485;45.702;11.364;2022-08-05T12:31:25;35.40;44.70
53599;DHT22;39485;45.702;11.364;2022-08-05T12:33:51;35.40;44.50
53599;DHT22;39485;45.702;11.364;2022-08-05T12:36:19;35.40;44.50
53599;DHT22;39485;45.702;11.364;2022-08-05T12:38:45;35.40;44.40
53599;DHT22;39485;45.702;11.364;2022-08-05T12:41:12;35.40;44.60
53599;DHT22;39485;45.702;11.364;2022-08-05T12:43:56;35.40;44.60
53599;DHT22;39485;45.702;11.364;2022-08-05T12:46:22;35.40;44.60
53599;DHT22;39485;45.702;11.364;2022-08-05T12:49:09;35.40;44.80
53599;DHT22;39485;45.702;11.364;2022-08-05T12:51:47;35.40;44.70
53599;DHT22;39485;45.702;11.364;2022-08-05T12:54:30;35.50;44.70
53599;DHT22;39485;45.702;11.364;2022-08-05T12:57:06;35.60;44.70
53599;DHT22;39485;45.702;11.364;2022-08-05T12:59:42;35.60;44.70
53599;DHT22;39485;45.702;11.364;2022-08-05T13:02:10;35.50;44.60
53599;DHT22;39485;45.702;11.364;2022-08-05T13:04:38;35.60;44.60
53599;DHT22;39485;45.702;11.364;2022-08-05T13:07:15;35.50;44.50
53599;DHT22;39485;45.702;11.364;2022-08-05T13:09:47;35.50;44.60
53599;DHT22;39485;45.702;11.364;2022-08-05T13:12:15;35.40;44.40
53599;DHT22;39485;45.702;11.364;2022-08-05T13:14:44;35.40;44.70
53599;DHT22;39485;45.702;11.364;2022-08-05T13:17:22;35.40;44.90
53599;DHT22;39485;45.702;11.364;2022-08-05T13:22:32;35.50;44.80
53599;DHT22;39485;45.702;11.364;2022-08-05T13:24:59;35.40;44.60
53599;DHT22;39485;45.702;11.364;2022-08-05T13:27:36;35.40;44.70
53599;DHT22;39485;45.702;11.364;2022-08-05T13:30:04;35.40;44.70
53599;DHT22;39485;45.702;11.364;2022-08-05T13:32:31;35.40;44.70
53599;DHT22;39485;45.702;11.364;2022-08-05T13:34:56;35.40;44.90
53599;DHT22;39485;45.702;11.364;2022-08-05T13:37:22;35.50;45.00
53599;DHT22;39485;45.702;11.364;2022-08-05T13:39:49;35.50;45.00
53599;DHT22;39485;45.702;11.364;2022-08-05T13:42:15;35.50;45.00
53599;DHT22;39485;45.702;11.364;2022-08-05T13:44:44;35.40;44.80
53599;DHT22;39485;45.702;11.364;2022-08-05T13:47:10;35.40;44.90
53599;DHT22;39485;45.702;11.364;2022-08-05T13:49:36;35.30;44.90
53599;DHT22;39485;45.702;11.364;2022-08-05T13:52:12;35.30;44.80
53599;DHT22;39485;45.702;11.364;2022-08-05T13:54:38;35.30;44.80
53599;DHT22;39485;45.702;11.364;2022-08-05T13:57:04;35.30;44.80
53599;DHT22;39485;45.702;11.364;2022-08-05T13:59:30;35.20;44.80
53599;DHT22;39485;45.702;11.364;2022-08-05T14:01:56;35.20;45.00
53599;DHT22;39485;45.702;11.364;2022-08-05T14:04:22;35.20;45.00
53599;DHT22;39485;45.702;11.364;2022-08-05T14:07:07;35.30;45.00
53599;DHT22;39485;45.702;11.364;2022-08-05T14:09:33;35.30;45.00
53599;DHT22;39485;45.702;11.364;2022-08-05T14:11:59;35.30;44.90
53599;DHT22;39485;45.702;11.364;2022-08-05T14:14:25;35.30;44.90
53599;DHT22;39485;45.702;11.364;2022-08-05T14:16:51;35.30;45.10
53599;DHT22;39485;45.702;11.364;2022-08-05T14:19:17;35.30;45.20
53599;DHT22;39485;45.702;11.364;2022-08-05T14:21:42;35.30;45.20
53599;DHT22;39485;45.702;11.364;2022-08-05T14:24:08;35.30;45.20
53599;DHT22;39485;45.702;11.364;2022-08-05T14:26:36;35.40;45.10
53599;DHT22;39485;45.702;11.364;2022-08-05T14:29:02;35.30;45.00
53599;DHT22;39485;45.702;11.364;2022-08-05T14:31:29;35.30;44.90
53599;DHT22;39485;45.702;11.364;2022-08-05T14:33:54;35.30;44.90
53599;DHT22;39485;45.702;11.364;2022-08-05T14:36:20;35.30;44.90
53599;DHT22;39485;45.702;11.364;2022-08-05T14:38:46;35.30;44.90
53599;DHT22;39485;45.702;11.364;2022-08-05T14:41:12;35.20;44.80
53599;DHT22;39485;45.702;11.364;2022-08-05T14:43:37;35.20;45.00
53599;DHT22;39485;45.702;11.364;2022-08-05T14:46:03;35.20;45.00
53599;DHT22;39485;45.702;11.364;2022-08-05T14:48:28;35.20;45.00
53599;DHT22;39485;45.702;11.364;2022-08-05T14:50:54;35.20;45.20
53599;DHT22;39485;45.702;11.364;2022-08-05T14:53:20;35.20;45.20
53599;DHT22;39485;45.702;11.364;2022-08-05T14:55:45;35.20;45.20
53599;DHT22;39485;45.702;11.364;2022-08-05T14:58:11;35.20;45.30
53599;DHT22;39485;45.702;11.364;2022-08-05T15:00:37;35.20;45.40
53599;DHT22;39485;45.702;11.364;2022-08-05T15:03:03;35.20;45.60
53599;DHT22;39485;45.702;11.364;2022-08-05T15:05:31;35.20;45.60
53599;DHT22;39485;45.702;11.364;2022-08-05T15:07:57;35.20;45.50
53599;DHT22;39485;45.702;11.364;2022-08-05T15:10:22;35.30;45.60
53599;DHT22;39485;45.702;11.364;2022-08-05T15:12:48;35.20;45.40
53599;DHT22;39485;45.702;11.364;2022-08-05T15:15:14;35.20;45.50
53599;DHT22;39485;45.702;11.364;2022-08-05T15:17:40;35.20;45.60
53599;DHT22;39485;45.702;11.364;2022-08-05T15:20:08;35.20;45.60
53599;DHT22;39485;45.702;11.364;2022-08-05T15:22:33;35.20;45.80
53599;DHT22;39485;45.702;11.364;2022-08-05T15:24:59;35.20;45.90
53599;DHT22;39485;45.702;11.364;2022-08-05T15:27:25;35.20;45.80
53599;DHT22;39485;45.702;11.364;2022-08-05T15:29:51;35.20;45.80
53599;DHT22;39485;45.702;11.364;2022-08-05T15:32:16;35.10;45.70
53599;DHT22;39485;45.702;11.364;2022-08-05T15:34:42;35.20;45.70
53599;DHT22;39485;45.702;11.364;2022-08-05T15:37:08;35.20;45.90
53599;DHT22;39485;45.702;11.364;2022-08-05T15:39:33;35.20;45.90
53599;DHT22;39485;45.702;11.364;2022-08-05T15:41:59;35.10;45.80
53599;DHT22;39485;45.702;11.364;2022-08-05T15:44:26;35.10;45.80
53599;DHT22;39485;45.702;11.364;2022-08-05T15:46:52;35.20;46.00
53599;DHT22;39485;45.702;11.364;2022-08-05T15:49:17;35.10;45.90
53599;DHT22;39485;45.702;11.364;2022-08-05T15:51:43;35.10;46.00
53599;DHT22;39485;45.702;11.364;2022-08-05T15:54:09;35.10;46.00
53599;DHT22;39485;45.702;11.364;2022-08-05T15:56:34;35.10;46.00
53599;DHT22;39485;45.702;11.364;2022-08-05T15:59:00;35.10;46.00
53599;DHT22;39485;45.702;11.364;2022-08-05T16:01:26;35.10;46.00
53599;DHT22;39485;45.702;11.364;2022-08-05T16:03:51;35.10;45.80